Time,TemperatureF,DewpointF,PressureIn,WindDirection,WindDirectionDegrees,WindSpeedMPH,WindSpeedGustMPH,Humidity,HourlyPrecipIn,Conditions,Clouds,dailyrainin,SoftwareType,DateUTC
2013-07-19 00:44:00,80.0,73.0,30.03,SSW,192,0.0,-999.0,80,-99.99,,,-99.99,,2013-07-19 04:44:00,
2013-07-19 00:52:00,80.0,73.0,30.03,SSW,208,0.0,-999.0,80,-99.99,,,-99.99,,2013-07-19 04:52:00,
2013-07-19 01:53:00,79.0,73.0,30.01,SSW,193,0.0,-999.0,83,-99.99,,,-99.99,,2013-07-19 05:53:00,
2013-07-19 02:01:00,79.0,73.0,30.02,SSW,193,0.0,-999.0,83,-99.99,,,-99.99,,2013-07-19 06:01:00,
2013-07-19 02:11:00,79.0,74.0,30.02,SSW,193,0.0,-999.0,84,-99.99,,,-99.99,,2013-07-19 06:11:00,
2013-07-19 02:33:00,79.0,74.0,30.00,South,188,1.0,-999.0,85,-99.99,,,-99.99,,2013-07-19 06:33:00,
2013-07-19 02:43:00,79.0,74.0,30.00,South,188,1.0,-999.0,85,-99.99,,,-99.99,,2013-07-19 06:43:00,
2013-07-19 02:52:00,79.0,74.0,30.00,South,178,1.0,-999.0,85,-99.99,,,-99.99,,2013-07-19 06:52:00,
2013-07-19 03:01:00,79.0,74.0,30.00,South,176,1.0,-999.0,86,-99.99,,,-99.99,,2013-07-19 07:01:00,
2013-07-19 03:12:00,78.0,73.0,30.00,South,176,1.0,-999.0,86,-99.99,,,-99.99,,2013-07-19 07:12:00,
2013-07-19 03:32:00,78.0,73.0,29.98,South,176,1.0,-999.0,86,-99.99,,,-99.99,,2013-07-19 07:32:00,
2013-07-19 03:43:00,78.0,73.0,29.98,South,175,1.0,-999.0,86,-99.99,,,-99.99,,2013-07-19 07:43:00,
2013-07-19 03:53:00,78.0,73.0,29.98,South,175,1.0,-999.0,86,-99.99,,,-99.99,,2013-07-19 07:53:00,
2013-07-19 04:01:00,78.0,73.0,29.98,South,175,1.0,-999.0,86,-99.99,,,-99.99,,2013-07-19 08:01:00,
2013-07-19 04:11:00,78.0,73.0,29.98,South,175,1.0,-999.0,86,-99.99,,,-99.99,,2013-07-19 08:11:00,
2013-07-19 04:32:00,77.0,73.0,29.97,South,175,1.0,-999.0,87,-99.99,,,-99.99,,2013-07-19 08:32:00,
2013-07-19 04:43:00,77.0,73.0,29.97,South,175,1.0,-999.0,88,-99.99,,,-99.99,,2013-07-19 08:43:00,
2013-07-19 04:52:00,77.0,73.0,29.97,South,175,1.0,-999.0,88,-99.99,,,-99.99,,2013-07-19 08:52:00,
2013-07-19 05:02:00,77.0,74.0,29.97,South,175,1.0,-999.0,89,-99.99,,,-99.99,,2013-07-19 09:02:00,
2013-07-19 06:22:00,76.0,73.0,29.95,South,172,1.0,-999.0,90,-99.99,,,-99.99,,2013-07-19 10:22:00,
2013-07-19 06:43:00,76.0,73.0,29.96,South,172,2.0,-999.0,89,-99.99,,,-99.99,,2013-07-19 10:43:00,
2013-07-19 07:43:00,77.0,73.0,29.96,South,172,2.0,-999.0,88,-99.99,,,-99.99,,2013-07-19 11:43:00,
2013-07-19 07:52:00,77.0,73.0,29.96,South,172,2.0,-999.0,88,-99.99,,,-99.99,,2013-07-19 11:52:00,
2013-07-19 08:12:00,77.0,72.0,29.96,SSE,167,3.0,-999.0,86,-99.99,,,-99.99,,2013-07-19 12:12:00,
2013-07-19 08:22:00,78.0,73.0,29.96,South,182,2.0,-999.0,85,-99.99,,,-99.99,,2013-07-19 12:22:00,
2013-07-19 08:43:00,79.0,73.0,29.96,SSW,195,1.0,-999.0,83,-99.99,,,-99.99,,2013-07-19 12:43:00,
2013-07-19 09:12:00,80.0,73.0,29.96,South,178,2.0,-999.0,80,-99.99,,,-99.99,,2013-07-19 13:12:00,
2013-07-19 09:22:00,80.0,73.0,29.96,South,189,2.0,-999.0,79,-99.99,,,-99.99,,2013-07-19 13:22:00,
2013-07-19 09:53:00,81.0,73.0,29.97,SSW,212,2.0,-999.0,78,-99.99,,,-99.99,,2013-07-19 13:53:00,
2013-07-19 10:43:00,83.0,73.0,29.97,SSW,202,2.0,-999.0,73,-99.99,,,-99.99,,2013-07-19 14:43:00,
2013-07-19 10:52:00,84.0,74.0,29.97,SSW,202,3.0,-999.0,73,-99.99,,,-99.99,,2013-07-19 14:52:00,
2013-07-19 11:32:00,85.0,74.0,29.96,SW,219,3.0,-999.0,70,-99.99,,,-99.99,,2013-07-19 15:32:00,
2013-07-19 11:43:00,86.0,75.0,29.95,SSW,203,2.0,-999.0,70,-99.99,,,-99.99,,2013-07-19 15:43:00,
2013-07-19 11:52:00,86.0,75.0,29.95,SSW,202,2.0,-999.0,70,-99.99,,,-99.99,,2013-07-19 15:52:00,
2013-07-19 12:52:00,88.0,74.0,29.93,SSW,198,4.0,-999.0,64,-99.99,,,-99.99,,2013-07-19 16:52:00,
2013-07-19 13:43:00,90.0,75.0,29.91,South,178,3.0,-999.0,61,-99.99,,,-99.99,,2013-07-19 17:43:00,
2013-07-19 13:52:00,90.0,74.0,29.91,SSW,206,4.0,-999.0,59,-99.99,,,-99.99,,2013-07-19 17:52:00,
2013-07-19 14:11:00,90.0,73.0,29.91,South,191,6.0,-999.0,58,-99.99,,,-99.99,,2013-07-19 18:11:00,
2013-07-19 14:42:00,91.0,74.0,29.89,SW,234,5.0,-999.0,57,-99.99,,,-99.99,,2013-07-19 18:42:00,
2013-07-19 15:43:00,92.0,72.0,29.87,WSW,241,5.0,-999.0,53,-99.99,,,-99.99,,2013-07-19 19:43:00,
2013-07-19 16:43:00,91.0,73.0,29.85,SW,236,2.0,-999.0,55,-99.99,,,-99.99,,2013-07-19 20:43:00,
2013-07-19 17:11:00,88.0,71.0,29.84,South,184,4.0,-999.0,58,-99.99,,,-99.99,,2013-07-19 21:11:00,
2013-07-19 18:42:00,91.0,71.0,29.82,WSW,241,4.0,-999.0,52,-99.99,,,-99.99,,2013-07-19 22:42:00,
2013-07-19 18:52:00,91.0,70.0,29.81,WSW,241,4.0,-999.0,51,-99.99,,,-99.99,,2013-07-19 22:52:00,
2013-07-19 19:43:00,90.0,71.0,29.82,WSW,243,3.0,-999.0,53,-99.99,,,-99.99,,2013-07-19 23:43:00,
2013-07-19 19:52:00,90.0,71.0,29.82,SW,232,3.0,-999.0,53,-99.99,,,-99.99,,2013-07-19 23:52:00,
2013-07-19 20:01:00,89.0,71.0,29.81,SW,236,2.0,-999.0,55,-99.99,,,-99.99,,2013-07-20 00:01:00,
2013-07-19 20:11:00,89.0,71.0,29.81,SW,226,2.0,-999.0,56,-99.99,,,-99.99,,2013-07-20 00:11:00,
2013-07-19 20:32:00,89.0,72.0,29.82,SW,224,1.0,-999.0,57,-99.99,,,-99.99,,2013-07-20 00:32:00,
2013-07-19 20:43:00,88.0,71.0,29.82,South,186,1.0,-999.0,58,-99.99,,,-99.99,,2013-07-20 00:43:00,
2013-07-19 21:01:00,87.0,71.0,29.82,South,185,1.0,-999.0,60,-99.99,,,-99.99,,2013-07-20 01:01:00,
2013-07-19 21:11:00,87.0,71.0,29.82,South,186,1.0,-999.0,60,-99.99,,,-99.99,,2013-07-20 01:11:00,
2013-07-19 21:22:00,87.0,72.0,29.82,South,186,1.0,-999.0,61,-99.99,,,-99.99,,2013-07-20 01:22:00,
2013-07-19 21:32:00,86.0,71.0,29.82,South,185,1.0,-999.0,62,-99.99,,,-99.99,,2013-07-20 01:32:00,
2013-07-19 22:02:00,85.0,71.0,29.82,South,185,1.0,-999.0,64,-99.99,,,-99.99,,2013-07-20 02:02:00,
2013-07-19 22:33:00,84.0,72.0,29.82,South,186,1.0,-999.0,68,-99.99,,,-99.99,,2013-07-20 02:33:00,
2013-07-19 22:43:00,84.0,73.0,29.83,South,189,1.0,-999.0,70,-99.99,,,-99.99,,2013-07-20 02:43:00,
2013-07-19 23:12:00,84.0,74.0,29.82,SSW,206,2.0,-999.0,71,-99.99,,,-99.99,,2013-07-20 03:12:00,